createdAt,value
2023-03-02T00:02:05.880Z,1
2023-03-02T00:12:07.637Z,1
2023-03-02T00:22:05.943Z,1
2023-03-02T00:32:06.082Z,1
2023-03-02T00:42:05.953Z,1
2023-03-02T00:52:05.947Z,1
2023-03-02T01:02:06.245Z,1
2023-03-02T01:12:05.956Z,1
2023-03-02T01:22:05.882Z,1
2023-03-02T01:32:05.974Z,1
2023-03-02T01:42:06.070Z,1
2023-03-02T01:52:05.936Z,1
2023-03-02T02:02:06.072Z,1
2023-03-02T02:12:05.965Z,1
2023-03-02T02:22:06.077Z,1
2023-03-02T02:32:05.983Z,1
2023-03-02T02:42:06.158Z,1
2023-03-02T02:52:05.944Z,1
2023-03-02T03:02:06.054Z,1
2023-03-02T03:12:06.134Z,1
2023-03-02T03:22:06.151Z,1
2023-03-02T03:32:06.176Z,1
2023-03-02T03:42:06.121Z,1
2023-03-02T03:52:06.102Z,1
2023-03-02T04:02:06.030Z,1
2023-03-02T04:12:06.092Z,1
2023-03-02T04:22:06.315Z,1
2023-03-02T04:32:06.184Z,1
2023-03-02T04:42:06.351Z,1
2023-03-02T04:52:06.102Z,1
2023-03-02T05:02:06.406Z,1
2023-03-02T05:12:06.088Z,1
2023-03-02T05:22:06.224Z,1
2023-03-02T05:32:06.135Z,1
2023-03-02T05:42:06.212Z,1
2023-03-02T05:52:06.296Z,1
2023-03-02T06:02:06.286Z,1
2023-03-02T06:12:06.278Z,1
2023-03-02T06:22:06.198Z,1
2023-03-02T06:32:06.433Z,2
2023-03-02T06:42:06.193Z,10
2023-03-02T06:52:06.255Z,24
2023-03-02T07:02:06.390Z,39
2023-03-02T07:12:06.268Z,52
2023-03-02T07:22:06.373Z,62
2023-03-02T07:32:06.305Z,71
2023-03-02T07:42:06.488Z,78
2023-03-02T07:52:06.275Z,81
2023-03-02T08:02:06.425Z,83
2023-03-02T08:12:06.253Z,89
2023-03-02T08:22:06.381Z,92
2023-03-02T08:32:06.692Z,94
2023-03-02T08:42:06.385Z,94
2023-03-02T08:52:06.450Z,94
2023-03-02T09:02:06.369Z,94
2023-03-02T09:12:06.458Z,94
2023-03-02T09:22:06.364Z,94
2023-03-02T09:32:06.571Z,94
2023-03-02T09:42:06.380Z,93
2023-03-02T09:52:06.457Z,93
2023-03-02T10:02:06.658Z,93
2023-03-02T10:12:06.428Z,93
2023-03-02T10:22:06.556Z,94
2023-03-02T10:32:06.503Z,94
2023-03-02T10:42:06.624Z,94
2023-03-02T10:52:08.951Z,94
2023-03-02T11:02:06.514Z,94
2023-03-02T11:12:06.593Z,94
2023-03-02T11:22:06.491Z,94
2023-03-02T11:32:06.649Z,94
2023-03-02T11:42:07.873Z,96
2023-03-02T11:52:08.949Z,96
2023-03-02T12:02:08.949Z,96
2023-03-02T12:12:06.550Z,95
2023-03-02T12:22:06.770Z,95
2023-03-02T12:32:06.666Z,95
2023-03-02T12:42:06.738Z,95
2023-03-02T12:52:06.598Z,95
2023-03-02T13:02:06.640Z,95
2023-03-02T13:12:06.504Z,96
2023-03-02T13:22:06.698Z,96
2023-03-02T13:32:06.790Z,96
2023-03-02T13:42:06.675Z,96
2023-03-02T13:52:08.273Z,96
2023-03-02T14:02:06.623Z,96
2023-03-02T14:12:06.705Z,96
2023-03-02T14:22:06.626Z,96
2023-03-02T14:32:06.856Z,96
2023-03-02T14:42:06.808Z,95
2023-03-02T14:52:06.698Z,95
2023-03-02T15:02:19.117Z,95
2023-03-02T15:12:06.723Z,95
2023-03-02T15:22:06.837Z,94
2023-03-02T15:32:06.737Z,93
2023-03-02T15:42:06.804Z,93
2023-03-02T15:52:06.695Z,93
2023-03-02T16:02:06.837Z,93
2023-03-02T16:12:06.894Z,93
2023-03-02T16:22:06.791Z,92
2023-03-02T16:32:06.979Z,92
2023-03-02T16:42:06.806Z,92
2023-03-02T16:52:06.890Z,90
2023-03-02T17:02:06.792Z,89
2023-03-02T17:12:06.852Z,88
2023-03-02T17:22:06.802Z,83
2023-03-02T17:32:06.869Z,77
2023-03-02T17:42:06.984Z,64
2023-03-02T18:02:07.244Z,31
2023-03-02T18:12:06.966Z,12
2023-03-02T18:22:06.896Z,3
2023-03-02T18:32:07.020Z,1
2023-03-02T18:42:06.889Z,1
2023-03-02T18:52:06.978Z,1
2023-03-02T19:02:06.938Z,1
2023-03-02T19:12:06.957Z,1
2023-03-02T19:22:07.170Z,1
2023-03-02T19:32:07.117Z,1
2023-03-02T19:42:07.636Z,1
2023-03-02T19:52:06.939Z,1
2023-03-02T20:02:07.093Z,1
2023-03-02T20:12:06.957Z,1
2023-03-02T20:22:07.072Z,1
2023-03-02T20:32:06.977Z,1
2023-03-02T20:42:07.057Z,1
2023-03-02T20:52:07.906Z,1
2023-03-02T21:02:07.062Z,1
2023-03-02T21:12:07.780Z,1
2023-03-02T21:22:07.325Z,1
2023-03-02T21:32:09.920Z,1
2023-03-02T21:42:08.274Z,1
2023-03-02T21:52:09.344Z,1
2023-03-02T22:02:07.832Z,1
2023-03-02T22:12:07.909Z,1
2023-03-02T22:22:08.276Z,1
2023-03-02T22:32:07.228Z,1
2023-03-02T22:42:07.103Z,1
2023-03-02T22:52:07.170Z,1
2023-03-02T23:02:07.296Z,1
2023-03-02T23:12:07.169Z,1
2023-03-02T23:22:07.291Z,1
2023-03-02T23:32:07.296Z,1
2023-03-02T23:42:07.287Z,1
2023-03-02T23:52:07.147Z,1
